createdAt,value
2018-05-16T00:00:09.018Z,16.90
2018-05-16T00:02:38.574Z,16.90
2018-05-16T00:05:07.668Z,16.80
2018-05-16T00:07:36.722Z,16.80
2018-05-16T00:10:04.992Z,16.70
2018-05-16T00:12:33.288Z,16.70
2018-05-16T00:15:01.524Z,16.70
2018-05-16T00:17:29.817Z,16.60
2018-05-16T00:19:58.076Z,16.60
2018-05-16T00:22:26.377Z,16.70
2018-05-16T00:24:54.676Z,16.70
2018-05-16T00:27:22.910Z,16.80
2018-05-16T00:29:51.218Z,17.00
2018-05-16T00:32:19.535Z,17.00
2018-05-16T00:34:48.597Z,16.90
2018-05-16T00:37:16.833Z,16.70
2018-05-16T00:39:45.137Z,16.80
2018-05-16T00:42:13.454Z,16.80
2018-05-16T00:44:41.765Z,16.80
2018-05-16T00:47:11.214Z,16.80
2018-05-16T00:49:40.357Z,16.90
2018-05-16T00:52:08.643Z,17.00
2018-05-16T00:54:36.955Z,16.90
2018-05-16T00:57:05.316Z,16.80
2018-05-16T00:59:33.619Z,16.80
2018-05-16T01:02:02.961Z,16.90
2018-05-16T01:04:31.253Z,16.90
2018-05-16T01:06:59.521Z,17.00
2018-05-16T01:09:28.938Z,17.00
2018-05-16T01:11:57.188Z,17.00
2018-05-16T01:14:25.490Z,17.00
2018-05-16T01:16:53.751Z,17.10
2018-05-16T01:19:22.779Z,17.10
2018-05-16T01:21:51.073Z,16.90
2018-05-16T01:24:20.109Z,16.90
2018-05-16T01:26:49.124Z,16.90
2018-05-16T01:29:17.409Z,16.80
2018-05-16T01:31:45.650Z,16.80
2018-05-16T01:34:13.964Z,16.70
2018-05-16T01:36:43.088Z,16.70
2018-05-16T01:39:11.377Z,16.70
2018-05-16T01:41:40.226Z,16.70
2018-05-16T01:44:08.528Z,16.70
2018-05-16T01:46:37.569Z,16.80
2018-05-16T01:49:17.707Z,16.80
2018-05-16T01:51:45.950Z,16.80
2018-05-16T01:54:15.019Z,16.70
2018-05-16T01:56:43.252Z,16.70
2018-05-16T01:59:15.257Z,16.60
2018-05-16T02:01:43.712Z,16.70
2018-05-16T02:04:12.011Z,16.70
2018-05-16T02:06:40.266Z,16.80
2018-05-16T02:09:08.541Z,16.80
2018-05-16T02:11:36.844Z,16.80
2018-05-16T02:14:05.961Z,16.80
2018-05-16T02:16:34.256Z,16.80
2018-05-16T02:19:03.726Z,16.80
2018-05-16T02:21:32.000Z,16.70
2018-05-16T02:24:00.273Z,16.60
2018-05-16T02:26:28.566Z,16.50
2018-05-16T02:28:56.833Z,16.50
2018-05-16T02:31:26.581Z,16.50
2018-05-16T02:33:54.845Z,16.50
2018-05-16T02:36:26.757Z,16.60
2018-05-16T02:38:55.127Z,16.50
2018-05-16T02:41:24.543Z,16.70
2018-05-16T02:43:52.921Z,16.70
2018-05-16T02:46:21.221Z,16.70
2018-05-16T02:48:49.489Z,16.80
2018-05-16T02:51:17.739Z,16.70
2018-05-16T02:53:46.923Z,16.80
2018-05-16T02:56:15.191Z,16.70
2018-05-16T02:58:43.462Z,16.80
2018-05-16T03:01:12.897Z,16.80
2018-05-16T03:03:41.994Z,16.80
2018-05-16T03:06:10.295Z,16.80
2018-05-16T03:08:38.576Z,16.80
2018-05-16T03:11:07.012Z,16.90
2018-05-16T03:13:35.953Z,17.00
2018-05-16T03:16:05.023Z,17.00
2018-05-16T03:18:34.220Z,17.00
2018-05-16T03:21:02.600Z,17.00
2018-05-16T03:23:30.870Z,17.00
2018-05-16T03:25:59.169Z,17.00
2018-05-16T03:28:28.237Z,16.90
2018-05-16T03:30:56.529Z,16.80
2018-05-16T03:33:24.801Z,16.90
2018-05-16T03:35:53.077Z,16.90
2018-05-16T03:38:21.348Z,16.90
2018-05-16T03:40:50.403Z,16.90
2018-05-16T03:43:18.666Z,16.90
2018-05-16T03:45:46.984Z,17.00
2018-05-16T03:48:15.265Z,16.90
2018-05-16T03:50:43.584Z,17.00
2018-05-16T03:53:13.688Z,16.90
2018-05-16T03:55:41.936Z,16.90
2018-05-16T03:58:22.879Z,16.90
2018-05-16T04:01:02.931Z,16.80
2018-05-16T04:03:43.164Z,16.80
2018-05-16T04:06:12.252Z,16.80
2018-05-16T04:08:41.308Z,16.80
2018-05-16T04:11:09.622Z,16.80
2018-05-16T04:13:38.690Z,16.80
2018-05-16T04:16:06.969Z,16.70
2018-05-16T04:18:35.337Z,16.70
2018-05-16T04:21:03.652Z,16.80
2018-05-16T04:23:32.712Z,16.70
2018-05-16T04:26:01.001Z,16.70
2018-05-16T04:28:29.341Z,16.70
2018-05-16T04:30:57.605Z,16.80
2018-05-16T04:33:26.796Z,16.80
2018-05-16T04:35:55.076Z,16.80
2018-05-16T04:38:24.647Z,16.80
2018-05-16T04:40:52.940Z,16.80
2018-05-16T04:43:21.960Z,16.70
2018-05-16T04:45:50.237Z,16.70
2018-05-16T04:48:18.483Z,16.80
2018-05-16T04:50:46.819Z,16.80
2018-05-16T04:53:15.219Z,16.80
2018-05-16T04:55:45.208Z,16.90
2018-05-16T04:58:13.508Z,16.90
2018-05-16T05:00:42.538Z,17.20
2018-05-16T05:03:10.856Z,17.10
2018-05-16T05:05:39.198Z,17.20
2018-05-16T05:08:07.477Z,17.20
2018-05-16T05:10:35.748Z,17.20
2018-05-16T05:13:04.065Z,17.20
2018-05-16T05:15:32.343Z,17.20
2018-05-16T05:18:00.657Z,17.30
2018-05-16T05:20:28.970Z,17.40
2018-05-16T05:22:57.277Z,17.50
2018-05-16T05:25:25.547Z,17.70
2018-05-16T05:27:53.899Z,17.90
2018-05-16T05:30:23.032Z,18.10
2018-05-16T05:32:51.263Z,18.30
2018-05-16T05:35:19.582Z,18.30
2018-05-16T05:37:47.873Z,18.40
2018-05-16T05:40:16.930Z,18.50
2018-05-16T05:42:45.946Z,18.50
2018-05-16T05:45:14.227Z,18.50
2018-05-16T05:47:42.502Z,18.40
2018-05-16T05:50:12.310Z,18.30
2018-05-16T05:52:41.711Z,18.30
2018-05-16T05:55:10.005Z,18.50
2018-05-16T05:57:38.280Z,18.50
2018-05-16T06:00:06.593Z,18.60
2018-05-16T06:02:35.590Z,18.80
2018-05-16T06:05:03.911Z,18.70
2018-05-16T06:07:32.173Z,18.90
2018-05-16T06:10:00.547Z,19.00
2018-05-16T06:12:30.654Z,19.10
2018-05-16T06:14:59.119Z,19.20
2018-05-16T06:17:27.361Z,19.30
2018-05-16T06:19:56.507Z,19.60
2018-05-16T06:22:24.729Z,19.60
2018-05-16T06:24:53.739Z,19.30
2018-05-16T06:27:22.248Z,19.40
2018-05-16T06:29:50.363Z,19.40
2018-05-16T06:32:18.695Z,19.40
2018-05-16T06:34:47.749Z,19.40
2018-05-16T06:37:16.053Z,19.40
2018-05-16T06:39:44.307Z,19.30
2018-05-16T06:42:13.378Z,19.40
2018-05-16T06:44:41.776Z,19.40
2018-05-16T06:47:10.038Z,19.50
2018-05-16T06:49:38.353Z,19.60
2018-05-16T06:52:06.645Z,19.70
2018-05-16T06:54:34.943Z,20.80
2018-05-16T06:57:03.243Z,21.60
2018-05-16T06:59:31.562Z,21.70
2018-05-16T07:01:59.809Z,21.70
2018-05-16T07:04:28.865Z,22.10
2018-05-16T07:06:57.269Z,22.10
2018-05-16T07:09:27.057Z,22.00
2018-05-16T07:11:55.323Z,22.00
2018-05-16T07:14:23.610Z,22.30
2018-05-16T07:16:51.921Z,22.60
2018-05-16T07:19:20.984Z,22.90
2018-05-16T07:21:50.282Z,22.80
2018-05-16T07:24:18.557Z,23.60
2018-05-16T07:26:46.800Z,23.70
2018-05-16T07:29:15.128Z,23.70
2018-05-16T07:31:43.401Z,24.20
2018-05-16T07:34:11.693Z,24.60
2018-05-16T07:36:40.768Z,24.90
2018-05-16T07:39:09.044Z,24.90
2018-05-16T07:41:37.339Z,25.80
2018-05-16T07:44:05.628Z,26.50
2018-05-16T07:46:33.945Z,26.60
2018-05-16T07:49:02.241Z,25.80
2018-05-16T07:51:30.499Z,25.20
2018-05-16T07:53:58.794Z,25.20
2018-05-16T07:56:27.083Z,24.90
2018-05-16T07:58:55.347Z,24.40
2018-05-16T08:01:23.649Z,24.50
2018-05-16T08:03:52.014Z,24.30
2018-05-16T08:06:20.377Z,23.90
2018-05-16T08:08:48.639Z,23.80
2018-05-16T08:11:16.919Z,23.50
2018-05-16T08:13:45.189Z,23.70
2018-05-16T08:16:14.359Z,23.80
2018-05-16T08:18:43.513Z,23.90
2018-05-16T08:21:11.775Z,23.90
2018-05-16T08:23:40.013Z,23.80
2018-05-16T08:26:11.100Z,23.80
2018-05-16T08:28:41.555Z,23.90
2018-05-16T08:31:10.577Z,23.80
2018-05-16T08:33:39.573Z,23.50
2018-05-16T08:36:08.631Z,23.60
2018-05-16T08:38:36.907Z,23.60
2018-05-16T08:41:05.184Z,23.70
2018-05-16T08:43:35.398Z,24.10
2018-05-16T08:46:03.688Z,24.10
2018-05-16T08:48:32.768Z,23.90
2018-05-16T08:51:01.419Z,23.90
2018-05-16T08:53:29.801Z,23.80
2018-05-16T08:55:57.970Z,23.70
2018-05-16T08:58:26.272Z,23.60
2018-05-16T09:00:55.318Z,23.40
2018-05-16T09:03:24.461Z,23.10
2018-05-16T09:05:52.741Z,23.10
2018-05-16T09:08:21.063Z,23.30
2018-05-16T09:10:50.068Z,23.30
2018-05-16T09:13:18.729Z,23.40
2018-05-16T09:15:47.816Z,23.70
2018-05-16T09:18:16.901Z,23.90
2018-05-16T09:20:45.155Z,23.90
2018-05-16T09:23:13.912Z,24.10
2018-05-16T09:25:42.192Z,24.00
2018-05-16T09:28:10.502Z,23.90
2018-05-16T09:30:38.781Z,23.90
2018-05-16T09:33:07.825Z,24.10
2018-05-16T09:35:36.720Z,24.10
2018-05-16T09:40:40.449Z,24.60
2018-05-16T09:43:08.978Z,24.60
2018-05-16T09:45:37.254Z,24.50
2018-05-16T09:48:05.502Z,24.60
2018-05-16T09:50:33.777Z,24.70
2018-05-16T09:53:02.841Z,24.80
2018-05-16T09:55:31.915Z,24.80
2018-05-16T09:58:00.941Z,25.00
2018-05-16T10:00:32.740Z,25.00
2018-05-16T10:03:01.008Z,25.10
2018-05-16T10:05:29.279Z,25.20
2018-05-16T10:07:57.572Z,25.00
2018-05-16T10:10:26.621Z,24.90
2018-05-16T10:12:55.170Z,24.90
2018-05-16T10:15:24.444Z,25.40
2018-05-16T10:17:52.677Z,25.40
2018-05-16T10:20:21.213Z,25.40
2018-05-16T10:22:49.481Z,25.20
2018-05-16T10:25:17.746Z,25.30
2018-05-16T10:27:45.986Z,25.40
2018-05-16T10:30:14.276Z,25.70
2018-05-16T10:32:42.583Z,25.90
2018-05-16T10:35:11.614Z,26.00
2018-05-16T10:37:39.942Z,26.00
2018-05-16T10:40:08.233Z,25.90
2018-05-16T10:42:37.275Z,25.60
2018-05-16T10:45:05.580Z,25.60
2018-05-16T10:47:34.677Z,25.70
2018-05-16T10:50:03.422Z,25.70
2018-05-16T10:52:32.487Z,25.50
2018-05-16T10:55:01.535Z,25.50
2018-05-16T10:57:29.851Z,25.50
2018-05-16T10:59:58.115Z,25.70
2018-05-16T11:02:26.400Z,25.90
2018-05-16T11:04:54.688Z,25.80
2018-05-16T11:07:23.721Z,25.60
2018-05-16T11:09:52.018Z,25.60
2018-05-16T11:12:20.328Z,25.40
2018-05-16T11:14:48.546Z,25.40
2018-05-16T11:17:16.849Z,25.40
2018-05-16T11:19:46.273Z,25.40
2018-05-16T11:22:14.569Z,25.60
2018-05-16T11:24:43.633Z,25.50
2018-05-16T11:27:12.715Z,25.60
2018-05-16T11:29:43.906Z,25.60
2018-05-16T11:32:12.127Z,25.80
2018-05-16T11:34:40.414Z,25.80
2018-05-16T11:37:08.684Z,26.00
2018-05-16T11:39:36.988Z,26.00
2018-05-16T11:42:05.257Z,26.00
2018-05-16T11:44:33.535Z,26.00
2018-05-16T11:47:01.779Z,26.20
2018-05-16T11:49:30.064Z,26.20
2018-05-16T11:51:59.252Z,26.20
2018-05-16T11:54:27.506Z,26.40
2018-05-16T11:56:55.834Z,26.70
2018-05-16T11:59:24.115Z,26.90
2018-05-16T12:01:53.805Z,26.70
2018-05-16T12:04:22.101Z,26.60
2018-05-16T12:06:51.617Z,26.50
2018-05-16T12:09:19.886Z,26.50
2018-05-16T12:11:48.250Z,26.80
2018-05-16T12:14:16.552Z,26.80
2018-05-16T12:16:46.502Z,26.30
2018-05-16T12:19:14.815Z,26.30
2018-05-16T12:21:43.184Z,26.20
2018-05-16T12:24:13.211Z,26.40
2018-05-16T12:26:41.519Z,26.40
2018-05-16T12:29:09.871Z,26.30
2018-05-16T12:31:38.059Z,26.30
2018-05-16T12:34:06.312Z,26.50
2018-05-16T12:36:34.613Z,26.40
2018-05-16T12:39:02.857Z,26.50
2018-05-16T12:44:06.696Z,26.20
2018-05-16T12:46:36.226Z,26.20
2018-05-16T12:49:05.279Z,26.80
2018-05-16T12:51:33.569Z,26.80
2018-05-16T12:54:01.868Z,27.00
2018-05-16T12:56:31.682Z,26.80
2018-05-16T12:59:00.765Z,26.70
2018-05-16T13:01:30.581Z,26.70
2018-05-16T13:03:59.630Z,26.70
2018-05-16T13:06:28.664Z,26.90
2018-05-16T13:08:56.937Z,26.60
2018-05-16T13:11:25.239Z,26.60
2018-05-16T13:13:54.293Z,26.50
2018-05-16T13:16:22.571Z,26.50
2018-05-16T13:18:51.671Z,26.20
2018-05-16T13:21:21.041Z,26.20
2018-05-16T13:23:49.237Z,26.20
2018-05-16T13:26:17.527Z,26.30
2018-05-16T13:28:50.031Z,26.40
2018-05-16T13:31:19.080Z,26.30
2018-05-16T13:33:47.348Z,26.30
2018-05-16T13:36:15.746Z,26.40
2018-05-16T13:38:44.712Z,26.40
2018-05-16T13:41:13.024Z,26.40
2018-05-16T13:43:41.262Z,26.20
2018-05-16T13:46:10.357Z,26.10
2018-05-16T13:48:38.593Z,26.20
2018-05-16T13:51:08.628Z,26.00
2018-05-16T13:53:37.691Z,26.00
2018-05-16T13:56:06.064Z,26.00
2018-05-16T13:58:34.299Z,26.00
2018-05-16T14:01:02.616Z,25.90
2018-05-16T14:03:30.973Z,26.00
2018-05-16T14:05:59.261Z,26.20
2018-05-16T14:08:27.571Z,26.20
2018-05-16T14:10:56.607Z,26.30
2018-05-16T14:13:26.589Z,26.20
2018-05-16T14:15:55.614Z,26.30
2018-05-16T14:18:23.862Z,26.30
2018-05-16T14:20:52.894Z,26.20
2018-05-16T14:23:21.203Z,26.10
2018-05-16T14:25:49.477Z,26.10
2018-05-16T14:28:17.714Z,26.20
2018-05-16T14:30:46.013Z,26.20
2018-05-16T14:33:14.338Z,26.00
2018-05-16T14:35:42.627Z,25.90
2018-05-16T14:38:10.924Z,26.00
2018-05-16T14:40:39.209Z,26.00
2018-05-16T14:43:07.497Z,26.10
2018-05-16T14:45:35.752Z,26.00
2018-05-16T14:48:04.027Z,25.90
2018-05-16T14:50:32.341Z,25.80
2018-05-16T14:53:02.091Z,25.50
2018-05-16T14:55:30.413Z,25.50
2018-05-16T14:57:58.698Z,25.50
2018-05-16T15:00:27.025Z,25.50
2018-05-16T15:02:55.292Z,25.60
2018-05-16T15:05:23.629Z,25.60
2018-05-16T15:07:51.919Z,25.50
2018-05-16T15:10:20.936Z,25.70
2018-05-16T15:12:50.045Z,25.70
2018-05-16T15:15:19.100Z,25.80
2018-05-16T15:17:48.158Z,25.80
2018-05-16T15:20:16.442Z,25.70
2018-05-16T15:22:45.120Z,25.70
2018-05-16T15:25:13.381Z,25.50
2018-05-16T15:27:42.645Z,25.40
2018-05-16T15:30:10.902Z,25.40
2018-05-16T15:32:39.988Z,25.20
2018-05-16T15:35:08.242Z,25.20
2018-05-16T15:37:36.545Z,25.10
2018-05-16T15:40:04.898Z,25.20
2018-05-16T15:42:33.140Z,25.40
2018-05-16T15:45:01.499Z,25.10
2018-05-16T15:47:30.509Z,25.10
2018-05-16T15:49:58.841Z,25.00
2018-05-16T15:52:27.106Z,25.00
2018-05-16T15:54:55.405Z,24.90
2018-05-16T15:57:24.693Z,24.80
2018-05-16T15:59:52.979Z,24.70
2018-05-16T16:02:21.247Z,24.60
2018-05-16T16:04:49.552Z,24.40
2018-05-16T16:07:19.866Z,24.30
2018-05-16T16:09:48.229Z,24.30
2018-05-16T16:12:16.529Z,24.20
2018-05-16T16:14:45.540Z,24.30
2018-05-16T16:17:13.836Z,24.20
2018-05-16T16:19:42.117Z,24.20
2018-05-16T16:22:10.349Z,24.20
2018-05-16T16:24:39.416Z,24.10
2018-05-16T16:27:07.690Z,24.10
2018-05-16T16:29:35.983Z,24.00
2018-05-16T16:32:04.364Z,23.90
2018-05-16T16:34:32.666Z,23.90
2018-05-16T16:37:01.004Z,23.70
2018-05-16T16:39:29.312Z,23.60
2018-05-16T16:41:58.364Z,23.10
2018-05-16T16:44:26.717Z,23.00
2018-05-16T16:46:55.033Z,22.80
2018-05-16T16:49:23.284Z,22.60
2018-05-16T16:51:51.565Z,22.60
2018-05-16T16:54:19.812Z,22.50
2018-05-16T16:56:48.148Z,22.40
2018-05-16T16:59:17.219Z,22.30
2018-05-16T17:01:45.487Z,22.30
2018-05-16T17:04:14.672Z,22.20
2018-05-16T17:06:43.483Z,22.20
2018-05-16T17:09:11.777Z,22.20
2018-05-16T17:11:40.098Z,22.10
2018-05-16T17:14:08.410Z,22.10
2018-05-16T17:16:37.426Z,22.10
2018-05-16T17:19:06.497Z,22.00
2018-05-16T17:21:34.776Z,22.00
2018-05-16T17:24:03.064Z,21.90
2018-05-16T17:26:31.371Z,21.80
2018-05-16T17:29:00.434Z,21.50
2018-05-16T17:31:28.717Z,21.50
2018-05-16T17:33:57.071Z,21.50
2018-05-16T17:36:25.369Z,21.40
2018-05-16T17:38:53.622Z,21.20
2018-05-16T17:41:22.865Z,21.10
2018-05-16T17:43:51.945Z,20.90
2018-05-16T17:46:20.302Z,20.80
2018-05-16T17:48:48.585Z,20.80
2018-05-16T17:51:16.913Z,20.70
2018-05-16T17:53:45.206Z,20.60
2018-05-16T17:56:14.258Z,20.50
2018-05-16T17:58:43.420Z,20.50
2018-05-16T18:01:11.706Z,20.50
2018-05-16T18:03:40.008Z,20.40
2018-05-16T18:06:09.083Z,20.30
2018-05-16T18:08:37.394Z,20.30
2018-05-16T18:11:06.442Z,20.10
2018-05-16T18:16:48.676Z,20.00
2018-05-16T18:19:17.236Z,19.90
2018-05-16T18:21:45.531Z,19.80
2018-05-16T18:24:13.809Z,19.70
2018-05-16T18:26:42.126Z,19.60
2018-05-16T18:29:10.474Z,19.50
2018-05-16T18:31:38.781Z,19.40
2018-05-16T18:34:07.829Z,19.30
2018-05-16T18:36:36.130Z,19.30
2018-05-16T18:39:05.174Z,19.10
2018-05-16T18:41:33.483Z,19.10
2018-05-16T18:44:01.780Z,19.00
2018-05-16T18:46:30.055Z,18.90
2018-05-16T18:48:58.369Z,18.90
2018-05-16T18:51:26.730Z,18.70
2018-05-16T18:53:55.088Z,18.50
2018-05-16T18:56:23.454Z,18.40
2018-05-16T18:58:51.727Z,18.30
2018-05-16T19:01:20.375Z,18.20
2018-05-16T19:03:48.809Z,18.10
2018-05-16T19:06:18.615Z,18.00
2018-05-16T19:08:46.988Z,18.00
2018-05-16T19:11:15.254Z,17.90
2018-05-16T19:13:43.607Z,17.80
2018-05-16T19:16:11.909Z,17.70
2018-05-16T19:18:40.592Z,17.70
2018-05-16T19:21:09.702Z,17.60
2018-05-16T19:23:37.965Z,17.50
2018-05-16T19:26:06.361Z,17.50
2018-05-16T19:28:36.321Z,17.40
2018-05-16T19:31:04.652Z,17.40
2018-05-16T19:33:32.985Z,17.30
2018-05-16T19:36:01.308Z,17.30
2018-05-16T19:38:30.370Z,17.20
2018-05-16T19:40:59.594Z,17.20
2018-05-16T19:43:27.879Z,17.10
2018-05-16T19:45:56.198Z,17.10
2018-05-16T19:48:24.464Z,17.00
2018-05-16T19:50:52.799Z,17.00
2018-05-16T19:53:21.088Z,16.90
2018-05-16T19:55:49.406Z,16.80
2018-05-16T19:58:17.681Z,16.70
2018-05-16T20:00:46.031Z,16.60
2018-05-16T20:03:16.702Z,16.50
2018-05-16T20:05:45.022Z,16.50
2018-05-16T20:08:13.355Z,16.40
2018-05-16T20:10:41.627Z,16.40
2018-05-16T20:13:09.961Z,16.40
2018-05-16T20:15:38.220Z,16.30
2018-05-16T20:18:06.557Z,16.20
2018-05-16T20:20:34.877Z,16.20
2018-05-16T20:23:03.207Z,16.20
2018-05-16T20:25:31.495Z,16.10
2018-05-16T20:27:59.826Z,16.10
2018-05-16T20:30:28.121Z,16.10
2018-05-16T20:32:56.444Z,16.00
2018-05-16T20:35:25.450Z,15.90
2018-05-16T20:37:54.634Z,15.90
2018-05-16T20:40:22.954Z,15.80
2018-05-16T20:42:52.023Z,15.70
2018-05-16T20:45:20.346Z,15.70
2018-05-16T20:47:48.885Z,15.70
2018-05-16T20:50:17.158Z,15.60
2018-05-16T20:52:45.474Z,15.50
2018-05-16T20:55:14.519Z,15.40
2018-05-16T20:57:42.776Z,15.40
2018-05-16T21:00:11.064Z,15.40
2018-05-16T21:02:39.356Z,15.20
2018-05-16T21:05:07.633Z,15.20
2018-05-16T21:07:35.944Z,15.10
2018-05-16T21:10:05.085Z,15.00
2018-05-16T21:12:34.003Z,14.90
2018-05-16T21:15:02.286Z,14.80
2018-05-16T21:17:30.556Z,14.70
2018-05-16T21:20:00.007Z,14.60
2018-05-16T21:22:28.363Z,14.60
2018-05-16T21:24:57.438Z,14.40
2018-05-16T21:27:25.777Z,14.40
2018-05-16T21:29:54.165Z,14.30
2018-05-16T21:32:22.455Z,14.30
2018-05-16T21:34:50.718Z,14.30
2018-05-16T21:37:19.833Z,14.30
2018-05-16T21:39:48.119Z,14.20
2018-05-16T21:42:17.184Z,14.10
2018-05-16T21:44:46.247Z,14.00
2018-05-16T21:47:14.487Z,13.90
2018-05-16T21:49:43.547Z,13.80
2018-05-16T21:52:11.847Z,13.70
2018-05-16T21:54:40.129Z,13.70
2018-05-16T21:57:09.166Z,13.50
2018-05-16T21:59:37.468Z,13.50
2018-05-16T22:02:05.939Z,13.40
2018-05-16T22:04:34.347Z,13.40
2018-05-16T22:07:02.748Z,13.40
2018-05-16T22:09:31.039Z,13.30
2018-05-16T22:12:00.093Z,13.20
2018-05-16T22:14:28.388Z,13.20
2018-05-16T22:16:57.443Z,13.00
2018-05-16T22:19:25.764Z,13.00
2018-05-16T22:21:54.037Z,13.00
2018-05-16T22:24:22.319Z,13.00
2018-05-16T22:26:50.655Z,13.00
2018-05-16T22:29:18.977Z,12.90
2018-05-16T22:31:53.828Z,12.80
2018-05-16T22:34:28.613Z,12.70
2018-05-16T22:37:03.337Z,12.70
2018-05-16T22:39:37.262Z,12.70
2018-05-16T22:42:11.237Z,12.70
2018-05-16T22:44:46.416Z,12.60
2018-05-16T22:47:14.675Z,12.50
2018-05-16T22:49:43.051Z,12.50
2018-05-16T22:52:11.333Z,12.50
2018-05-16T22:54:40.361Z,12.30
2018-05-16T22:57:08.662Z,12.20
2018-05-16T22:59:36.952Z,12.20
2018-05-16T23:02:05.213Z,12.10
2018-05-16T23:04:33.491Z,12.10
2018-05-16T23:07:01.747Z,12.10
2018-05-16T23:09:30.071Z,12.00
2018-05-16T23:11:58.369Z,12.00
2018-05-16T23:14:27.381Z,11.90
2018-05-16T23:16:55.656Z,11.90
2018-05-16T23:19:23.900Z,11.90
2018-05-16T23:21:52.211Z,11.90
2018-05-16T23:24:21.955Z,11.80
2018-05-16T23:26:50.250Z,11.80
2018-05-16T23:29:18.500Z,11.80
2018-05-16T23:31:46.788Z,11.90
2018-05-16T23:34:16.086Z,11.90
2018-05-16T23:36:44.346Z,11.90
2018-05-16T23:39:12.661Z,11.80
2018-05-16T23:41:40.936Z,11.80
2018-05-16T23:44:09.248Z,11.80
2018-05-16T23:46:38.268Z,11.90
2018-05-16T23:49:06.583Z,11.90
2018-05-16T23:51:34.967Z,11.80
2018-05-16T23:54:03.279Z,11.90
2018-05-16T23:56:31.574Z,11.90
2018-05-16T23:59:00.676Z,12.00
